sensor_id;sensor_type;location;lat;lon;timestamp;temperature;humidity
15407;DHT22;7802;51.568;6.364;2022-10-12T00:01:37;5.50;99.90
15407;DHT22;7802;51.568;6.364;2022-10-12T00:04:25;5.50;99.90
15407;DHT22;7802;51.568;6.364;2022-10-12T00:07:12;5.40;99.90
15407;DHT22;7802;51.568;6.364;2022-10-12T00:09:59;5.40;99.90
15407;DHT22;7802;51.568;6.364;2022-10-12T00:12:46;5.40;99.90
15407;DHT22;7802;51.568;6.364;2022-10-12T00:15:36;5.40;99.90
15407;DHT22;7802;51.568;6.364;2022-10-12T00:18:22;5.50;99.90
15407;DHT22;7802;51.568;6.364;2022-10-12T00:21:11;5.40;99.90
15407;DHT22;7802;51.568;6.364;2022-10-12T00:23:59;5.40;99.90
15407;DHT22;7802;51.568;6.364;2022-10-12T00:26:48;5.40;99.90
15407;DHT22;7802;51.568;6.364;2022-10-12T00:29:37;5.50;99.90
15407;DHT22;7802;51.568;6.364;2022-10-12T00:32:24;5.40;99.90
15407;DHT22;7802;51.568;6.364;2022-10-12T00:35:10;5.50;99.90
15407;DHT22;7802;51.568;6.364;2022-10-12T00:37:57;5.40;99.90
15407;DHT22;7802;51.568;6.364;2022-10-12T00:40:44;5.40;99.90
15407;DHT22;7802;51.568;6.364;2022-10-12T00:43:33;5.30;99.90
15407;DHT22;7802;51.568;6.364;2022-10-12T00:46:25;5.30;99.90
15407;DHT22;7802;51.568;6.364;2022-10-12T00:49:18;5.30;99.90
15407;DHT22;7802;51.568;6.364;2022-10-12T00:52:10;5.40;99.90
15407;DHT22;7802;51.568;6.364;2022-10-12T00:54:59;5.40;99.90
15407;DHT22;7802;51.568;6.364;2022-10-12T00:57:47;5.30;99.90
15407;DHT22;7802;51.568;6.364;2022-10-12T01:00:36;5.40;99.90
15407;DHT22;7802;51.568;6.364;2022-10-12T01:03:24;5.50;99.90
15407;DHT22;7802;51.568;6.364;2022-10-12T01:06:11;5.40;99.90
15407;DHT22;7802;51.568;6.364;2022-10-12T01:08:58;5.50;99.90
15407;DHT22;7802;51.568;6.364;2022-10-12T01:11:46;5.50;99.90
15407;DHT22;7802;51.568;6.364;2022-10-12T01:14:34;5.50;99.90
15407;DHT22;7802;51.568;6.364;2022-10-12T01:17:31;5.50;99.90
15407;DHT22;7802;51.568;6.364;2022-10-12T01:20:39;5.50;99.90
15407;DHT22;7802;51.568;6.364;2022-10-12T01:23:48;5.50;99.90
15407;DHT22;7802;51.568;6.364;2022-10-12T01:27:00;5.60;99.90
15407;DHT22;7802;51.568;6.364;2022-10-12T01:30:09;5.60;99.90
15407;DHT22;7802;51.568;6.364;2022-10-12T01:33:20;5.70;99.90
15407;DHT22;7802;51.568;6.364;2022-10-12T01:36:14;5.60;99.90
15407;DHT22;7802;51.568;6.364;2022-10-12T01:39:12;5.60;99.90
15407;DHT22;7802;51.568;6.364;2022-10-12T01:42:05;5.60;99.90
15407;DHT22;7802;51.568;6.364;2022-10-12T01:45:01;5.50;99.90
15407;DHT22;7802;51.568;6.364;2022-10-12T01:47:49;5.50;99.90
15407;DHT22;7802;51.568;6.364;2022-10-12T01:50:45;5.50;99.90
15407;DHT22;7802;51.568;6.364;2022-10-12T01:53:40;5.50;99.90
15407;DHT22;7802;51.568;6.364;2022-10-12T01:56:30;5.40;99.90
15407;DHT22;7802;51.568;6.364;2022-10-12T01:59:29;5.40;99.90
15407;DHT22;7802;51.568;6.364;2022-10-12T02:02:25;5.30;99.90
15407;DHT22;7802;51.568;6.364;2022-10-12T02:05:21;5.30;99.90
15407;DHT22;7802;51.568;6.364;2022-10-12T02:08:16;5.20;99.90
15407;DHT22;7802;51.568;6.364;2022-10-12T02:11:07;5.30;99.90
15407;DHT22;7802;51.568;6.364;2022-10-12T02:14:00;5.20;99.90
15407;DHT22;7802;51.568;6.364;2022-10-12T02:16:50;5.20;99.90
15407;DHT22;7802;51.568;6.364;2022-10-12T02:19:41;5.20;99.90
15407;DHT22;7802;51.568;6.364;2022-10-12T02:22:32;5.20;99.90
15407;DHT22;7802;51.568;6.364;2022-10-12T02:25:23;5.30;99.90
15407;DHT22;7802;51.568;6.364;2022-10-12T02:28:14;5.40;99.90
15407;DHT22;7802;51.568;6.364;2022-10-12T02:31:08;6.30;99.90
15407;DHT22;7802;51.568;6.364;2022-10-12T02:34:00;5.40;99.90
15407;DHT22;7802;51.568;6.364;2022-10-12T02:36:52;5.30;99.90
15407;DHT22;7802;51.568;6.364;2022-10-12T02:39:47;5.30;99.90
15407;DHT22;7802;51.568;6.364;2022-10-12T02:42:38;5.20;99.90
15407;DHT22;7802;51.568;6.364;2022-10-12T02:45:47;5.30;99.90
15407;DHT22;7802;51.568;6.364;2022-10-12T02:48:36;5.30;99.90
15407;DHT22;7802;51.568;6.364;2022-10-12T02:51:25;5.30;99.90
15407;DHT22;7802;51.568;6.364;2022-10-12T02:54:14;5.30;99.90
15407;DHT22;7802;51.568;6.364;2022-10-12T02:57:01;5.60;99.90
15407;DHT22;7802;51.568;6.364;2022-10-12T02:59:47;5.40;99.90
15407;DHT22;7802;51.568;6.364;2022-10-12T03:02:34;5.50;99.90
15407;DHT22;7802;51.568;6.364;2022-10-12T03:05:21;5.50;99.90
15407;DHT22;7802;51.568;6.364;2022-10-12T03:08:08;5.50;99.90
15407;DHT22;7802;51.568;6.364;2022-10-12T03:11:00;5.50;99.90
15407;DHT22;7802;51.568;6.364;2022-10-12T03:13:51;5.50;99.90
15407;DHT22;7802;51.568;6.364;2022-10-12T03:16:38;5.50;99.90
15407;DHT22;7802;51.568;6.364;2022-10-12T03:19:25;5.50;99.90
15407;DHT22;7802;51.568;6.364;2022-10-12T03:22:11;5.60;99.90
15407;DHT22;7802;51.568;6.364;2022-10-12T03:24:58;5.60;99.90
15407;DHT22;7802;51.568;6.364;2022-10-12T03:27:46;5.60;99.90
15407;DHT22;7802;51.568;6.364;2022-10-12T03:30:33;5.60;99.90
15407;DHT22;7802;51.568;6.364;2022-10-12T03:33:20;5.60;99.90
15407;DHT22;7802;51.568;6.364;2022-10-12T03:36:08;5.50;99.90
15407;DHT22;7802;51.568;6.364;2022-10-12T03:38:55;5.50;99.90
15407;DHT22;7802;51.568;6.364;2022-10-12T03:41:42;5.50;99.90
15407;DHT22;7802;51.568;6.364;2022-10-12T03:44:29;5.50;99.90
15407;DHT22;7802;51.568;6.364;2022-10-12T03:47:16;5.40;99.90
15407;DHT22;7802;51.568;6.364;2022-10-12T03:50:04;5.30;99.90
15407;DHT22;7802;51.568;6.364;2022-10-12T03:52:50;5.30;99.90
15407;DHT22;7802;51.568;6.364;2022-10-12T03:55:37;5.20;99.90
15407;DHT22;7802;51.568;6.364;2022-10-12T03:58:24;5.20;99.90
15407;DHT22;7802;51.568;6.364;2022-10-12T04:01:12;5.10;99.90
15407;DHT22;7802;51.568;6.364;2022-10-12T04:03:59;5.20;99.90
15407;DHT22;7802;51.568;6.364;2022-10-12T04:06:45;5.10;99.90
15407;DHT22;7802;51.568;6.364;2022-10-12T04:09:32;5.00;99.90
15407;DHT22;7802;51.568;6.364;2022-10-12T04:12:19;5.00;99.90
15407;DHT22;7802;51.568;6.364;2022-10-12T04:15:07;4.90;99.90
15407;DHT22;7802;51.568;6.364;2022-10-12T04:17:55;4.90;99.90
15407;DHT22;7802;51.568;6.364;2022-10-12T04:20:45;5.00;99.90
15407;DHT22;7802;51.568;6.364;2022-10-12T04:23:32;4.90;99.90
15407;DHT22;7802;51.568;6.364;2022-10-12T04:26:19;4.80;99.90
15407;DHT22;7802;51.568;6.364;2022-10-12T04:29:06;4.80;99.90
15407;DHT22;7802;51.568;6.364;2022-10-12T04:31:53;4.80;99.90
15407;DHT22;7802;51.568;6.364;2022-10-12T04:34:40;4.80;99.90
15407;DHT22;7802;51.568;6.364;2022-10-12T04:37:27;4.80;99.90
15407;DHT22;7802;51.568;6.364;2022-10-12T04:40:14;4.80;99.90
15407;DHT22;7802;51.568;6.364;2022-10-12T04:43:01;4.80;99.90
15407;DHT22;7802;51.568;6.364;2022-10-12T04:45:53;4.70;99.90
15407;DHT22;7802;51.568;6.364;2022-10-12T04:48:40;4.60;99.90
15407;DHT22;7802;51.568;6.364;2022-10-12T04:51:27;4.60;99.90
15407;DHT22;7802;51.568;6.364;2022-10-12T04:54:14;4.70;99.90
15407;DHT22;7802;51.568;6.364;2022-10-12T04:57:01;4.60;99.90
15407;DHT22;7802;51.568;6.364;2022-10-12T04:59:48;4.60;99.90
15407;DHT22;7802;51.568;6.364;2022-10-12T05:02:35;4.60;99.90
15407;DHT22;7802;51.568;6.364;2022-10-12T05:05:22;4.60;99.90
15407;DHT22;7802;51.568;6.364;2022-10-12T05:08:09;4.50;99.90
15407;DHT22;7802;51.568;6.364;2022-10-12T05:10:57;4.50;99.90
15407;DHT22;7802;51.568;6.364;2022-10-12T05:13:44;4.40;99.90
15407;DHT22;7802;51.568;6.364;2022-10-12T05:16:31;4.30;99.90
15407;DHT22;7802;51.568;6.364;2022-10-12T05:19:18;4.40;99.90
15407;DHT22;7802;51.568;6.364;2022-10-12T05:22:05;4.30;99.90
15407;DHT22;7802;51.568;6.364;2022-10-12T05:24:52;4.40;99.90
15407;DHT22;7802;51.568;6.364;2022-10-12T05:27:40;4.30;99.90
15407;DHT22;7802;51.568;6.364;2022-10-12T05:30:27;4.30;99.90
15407;DHT22;7802;51.568;6.364;2022-10-12T05:33:14;4.30;99.90
15407;DHT22;7802;51.568;6.364;2022-10-12T05:36:01;4.30;99.90
15407;DHT22;7802;51.568;6.364;2022-10-12T05:38:48;4.30;99.90
15407;DHT22;7802;51.568;6.364;2022-10-12T05:41:35;4.30;99.90
15407;DHT22;7802;51.568;6.364;2022-10-12T05:44:22;4.30;99.90
15407;DHT22;7802;51.568;6.364;2022-10-12T05:47:09;4.30;99.90
15407;DHT22;7802;51.568;6.364;2022-10-12T05:49:56;4.20;99.90
15407;DHT22;7802;51.568;6.364;2022-10-12T05:52:43;4.20;99.90
15407;DHT22;7802;51.568;6.364;2022-10-12T05:55:30;4.20;99.90
15407;DHT22;7802;51.568;6.364;2022-10-12T05:58:18;4.20;99.90
15407;DHT22;7802;51.568;6.364;2022-10-12T06:01:06;4.20;99.90
15407;DHT22;7802;51.568;6.364;2022-10-12T06:03:53;4.20;99.90
15407;DHT22;7802;51.568;6.364;2022-10-12T06:06:40;4.20;99.90
15407;DHT22;7802;51.568;6.364;2022-10-12T06:09:27;4.30;99.90
15407;DHT22;7802;51.568;6.364;2022-10-12T06:12:14;4.30;99.90
15407;DHT22;7802;51.568;6.364;2022-10-12T06:15:02;4.30;99.90
15407;DHT22;7802;51.568;6.364;2022-10-12T06:17:50;4.30;99.90
15407;DHT22;7802;51.568;6.364;2022-10-12T06:20:37;4.40;99.90
15407;DHT22;7802;51.568;6.364;2022-10-12T06:23:23;4.40;99.90
15407;DHT22;7802;51.568;6.364;2022-10-12T06:26:10;4.40;99.90
15407;DHT22;7802;51.568;6.364;2022-10-12T06:28:57;4.50;99.90
15407;DHT22;7802;51.568;6.364;2022-10-12T06:31:46;4.60;99.90
15407;DHT22;7802;51.568;6.364;2022-10-12T06:34:37;4.70;99.90
15407;DHT22;7802;51.568;6.364;2022-10-12T06:37:24;4.80;99.90
15407;DHT22;7802;51.568;6.364;2022-10-12T06:40:31;4.90;99.90
15407;DHT22;7802;51.568;6.364;2022-10-12T06:43:18;5.10;99.90
15407;DHT22;7802;51.568;6.364;2022-10-12T06:46:05;5.20;99.90
15407;DHT22;7802;51.568;6.364;2022-10-12T06:48:53;5.40;99.90
15407;DHT22;7802;51.568;6.364;2022-10-12T06:51:39;5.50;99.90
15407;DHT22;7802;51.568;6.364;2022-10-12T06:54:26;5.80;99.90
15407;DHT22;7802;51.568;6.364;2022-10-12T06:57:13;5.90;99.90
15407;DHT22;7802;51.568;6.364;2022-10-12T07:00:00;6.00;99.90
15407;DHT22;7802;51.568;6.364;2022-10-12T07:02:48;6.10;99.90
15407;DHT22;7802;51.568;6.364;2022-10-12T07:05:36;6.20;99.90
15407;DHT22;7802;51.568;6.364;2022-10-12T07:08:22;6.60;99.90
15407;DHT22;7802;51.568;6.364;2022-10-12T07:11:11;6.70;99.90
15407;DHT22;7802;51.568;6.364;2022-10-12T07:13:58;6.90;99.90
15407;DHT22;7802;51.568;6.364;2022-10-12T07:16:45;7.10;99.90
15407;DHT22;7802;51.568;6.364;2022-10-12T07:19:32;7.30;99.90
15407;DHT22;7802;51.568;6.364;2022-10-12T07:22:19;7.40;99.90
15407;DHT22;7802;51.568;6.364;2022-10-12T07:25:07;7.50;99.90
15407;DHT22;7802;51.568;6.364;2022-10-12T07:27:54;7.60;99.90
15407;DHT22;7802;51.568;6.364;2022-10-12T07:30:41;7.70;99.90
15407;DHT22;7802;51.568;6.364;2022-10-12T07:33:31;7.70;99.90
15407;DHT22;7802;51.568;6.364;2022-10-12T07:36:19;7.70;99.90
15407;DHT22;7802;51.568;6.364;2022-10-12T07:39:08;7.70;99.90
15407;DHT22;7802;51.568;6.364;2022-10-12T07:41:55;7.70;99.90
15407;DHT22;7802;51.568;6.364;2022-10-12T07:44:42;7.70;99.90
15407;DHT22;7802;51.568;6.364;2022-10-12T07:47:29;7.80;99.90
15407;DHT22;7802;51.568;6.364;2022-10-12T07:50:16;7.80;99.90
15407;DHT22;7802;51.568;6.364;2022-10-12T07:53:03;7.90;99.90
15407;DHT22;7802;51.568;6.364;2022-10-12T07:55:50;8.00;99.90
15407;DHT22;7802;51.568;6.364;2022-10-12T07:58:37;8.20;99.90
15407;DHT22;7802;51.568;6.364;2022-10-12T08:01:26;8.40;99.90
15407;DHT22;7802;51.568;6.364;2022-10-12T08:04:13;8.60;99.90
15407;DHT22;7802;51.568;6.364;2022-10-12T08:07:00;8.80;99.90
15407;DHT22;7802;51.568;6.364;2022-10-12T08:09:47;8.90;99.90
15407;DHT22;7802;51.568;6.364;2022-10-12T08:12:35;9.00;99.90
15407;DHT22;7802;51.568;6.364;2022-10-12T08:15:22;9.00;99.90
15407;DHT22;7802;51.568;6.364;2022-10-12T08:18:09;9.20;99.90
15407;DHT22;7802;51.568;6.364;2022-10-12T08:20:56;9.40;99.90
15407;DHT22;7802;51.568;6.364;2022-10-12T08:23:43;9.40;99.90
15407;DHT22;7802;51.568;6.364;2022-10-12T08:26:30;9.60;99.90
15407;DHT22;7802;51.568;6.364;2022-10-12T08:29:19;9.70;99.90
15407;DHT22;7802;51.568;6.364;2022-10-12T08:32:06;9.70;99.90
15407;DHT22;7802;51.568;6.364;2022-10-12T08:34:53;9.80;99.90
15407;DHT22;7802;51.568;6.364;2022-10-12T08:37:40;9.90;99.90
15407;DHT22;7802;51.568;6.364;2022-10-12T08:40:30;10.10;99.90
15407;DHT22;7802;51.568;6.364;2022-10-12T08:43:23;10.40;99.90
15407;DHT22;7802;51.568;6.364;2022-10-12T08:46:17;10.40;99.90
15407;DHT22;7802;51.568;6.364;2022-10-12T08:49:09;11.00;99.90
15407;DHT22;7802;51.568;6.364;2022-10-12T08:52:01;10.40;99.90
15407;DHT22;7802;51.568;6.364;2022-10-12T08:54:49;10.40;99.90
15407;DHT22;7802;51.568;6.364;2022-10-12T08:57:37;10.40;99.90
15407;DHT22;7802;51.568;6.364;2022-10-12T09:00:24;10.40;99.90
15407;DHT22;7802;51.568;6.364;2022-10-12T09:03:18;10.40;99.90
15407;DHT22;7802;51.568;6.364;2022-10-12T09:06:11;10.50;99.90
15407;DHT22;7802;51.568;6.364;2022-10-12T09:09:05;10.60;99.90
15407;DHT22;7802;51.568;6.364;2022-10-12T09:12:08;10.80;99.90
15407;DHT22;7802;51.568;6.364;2022-10-12T09:15:03;10.90;99.90
15407;DHT22;7802;51.568;6.364;2022-10-12T09:17:54;11.00;99.90
15407;DHT22;7802;51.568;6.364;2022-10-12T09:20:45;11.00;99.90
15407;DHT22;7802;51.568;6.364;2022-10-12T09:23:36;11.00;99.90
15407;DHT22;7802;51.568;6.364;2022-10-12T09:26:32;10.90;99.90
15407;DHT22;7802;51.568;6.364;2022-10-12T09:29:24;10.90;99.90
15407;DHT22;7802;51.568;6.364;2022-10-12T09:32:23;10.90;99.90
15407;DHT22;7802;51.568;6.364;2022-10-12T09:35:13;10.90;99.90
15407;DHT22;7802;51.568;6.364;2022-10-12T09:38:01;11.10;99.90
15407;DHT22;7802;51.568;6.364;2022-10-12T09:40:48;11.20;99.90
15407;DHT22;7802;51.568;6.364;2022-10-12T09:43:35;11.20;99.90
15407;DHT22;7802;51.568;6.364;2022-10-12T09:46:30;11.30;99.90
15407;DHT22;7802;51.568;6.364;2022-10-12T09:49:19;11.50;99.90
15407;DHT22;7802;51.568;6.364;2022-10-12T09:52:06;11.60;99.90
15407;DHT22;7802;51.568;6.364;2022-10-12T09:54:58;11.70;99.90
15407;DHT22;7802;51.568;6.364;2022-10-12T09:57:53;11.80;99.90
15407;DHT22;7802;51.568;6.364;2022-10-12T10:00:41;12.10;99.90
15407;DHT22;7802;51.568;6.364;2022-10-12T10:03:28;12.20;99.90
15407;DHT22;7802;51.568;6.364;2022-10-12T10:06:23;12.30;99.90
15407;DHT22;7802;51.568;6.364;2022-10-12T10:09:27;12.40;99.90
15407;DHT22;7802;51.568;6.364;2022-10-12T10:12:21;12.50;99.90
15407;DHT22;7802;51.568;6.364;2022-10-12T10:15:18;12.70;99.90
15407;DHT22;7802;51.568;6.364;2022-10-12T10:18:18;12.80;99.90
15407;DHT22;7802;51.568;6.364;2022-10-12T10:21:08;12.90;99.90
15407;DHT22;7802;51.568;6.364;2022-10-12T10:23:57;13.10;99.90
15407;DHT22;7802;51.568;6.364;2022-10-12T10:26:52;13.40;99.90
15407;DHT22;7802;51.568;6.364;2022-10-12T10:29:41;13.40;99.90
15407;DHT22;7802;51.568;6.364;2022-10-12T10:32:29;13.50;99.90
15407;DHT22;7802;51.568;6.364;2022-10-12T10:35:19;13.70;99.90
15407;DHT22;7802;51.568;6.364;2022-10-12T10:38:12;13.70;99.90
15407;DHT22;7802;51.568;6.364;2022-10-12T10:41:04;13.70;99.90
15407;DHT22;7802;51.568;6.364;2022-10-12T10:43:51;13.80;99.90
15407;DHT22;7802;51.568;6.364;2022-10-12T10:46:39;13.80;99.90
15407;DHT22;7802;51.568;6.364;2022-10-12T10:49:35;13.80;99.90
15407;DHT22;7802;51.568;6.364;2022-10-12T10:52:26;13.70;99.90
15407;DHT22;7802;51.568;6.364;2022-10-12T10:55:17;13.50;99.90
15407;DHT22;7802;51.568;6.364;2022-10-12T10:58:11;13.40;99.90
15407;DHT22;7802;51.568;6.364;2022-10-12T11:01:09;13.30;99.90
15407;DHT22;7802;51.568;6.364;2022-10-12T11:04:03;13.20;99.90
15407;DHT22;7802;51.568;6.364;2022-10-12T11:06:54;13.30;99.90
15407;DHT22;7802;51.568;6.364;2022-10-12T11:09:45;13.30;99.90
15407;DHT22;7802;51.568;6.364;2022-10-12T11:12:36;13.30;99.90
15407;DHT22;7802;51.568;6.364;2022-10-12T11:15:30;13.50;99.90
15407;DHT22;7802;51.568;6.364;2022-10-12T11:18:23;13.40;99.90
15407;DHT22;7802;51.568;6.364;2022-10-12T11:21:19;13.40;99.90
15407;DHT22;7802;51.568;6.364;2022-10-12T11:24:10;13.50;99.90
15407;DHT22;7802;51.568;6.364;2022-10-12T11:27:03;13.60;99.90
15407;DHT22;7802;51.568;6.364;2022-10-12T11:29:54;13.70;99.90
15407;DHT22;7802;51.568;6.364;2022-10-12T11:33:00;14.00;99.90
15407;DHT22;7802;51.568;6.364;2022-10-12T11:35:49;14.10;99.90
15407;DHT22;7802;51.568;6.364;2022-10-12T11:38:40;14.20;99.90
15407;DHT22;7802;51.568;6.364;2022-10-12T11:41:33;14.10;99.90
15407;DHT22;7802;51.568;6.364;2022-10-12T11:44:26;14.10;99.90
15407;DHT22;7802;51.568;6.364;2022-10-12T11:47:21;14.10;99.90
15407;DHT22;7802;51.568;6.364;2022-10-12T11:50:19;14.10;99.90
15407;DHT22;7802;51.568;6.364;2022-10-12T11:53:17;14.10;99.90
15407;DHT22;7802;51.568;6.364;2022-10-12T11:56:12;14.10;99.90
15407;DHT22;7802;51.568;6.364;2022-10-12T11:59:03;14.20;99.90
15407;DHT22;7802;51.568;6.364;2022-10-12T12:02:02;14.20;99.90
15407;DHT22;7802;51.568;6.364;2022-10-12T12:04:51;14.20;99.90
15407;DHT22;7802;51.568;6.364;2022-10-12T12:07:42;14.20;99.90
15407;DHT22;7802;51.568;6.364;2022-10-12T12:10:52;14.20;99.90
15407;DHT22;7802;51.568;6.364;2022-10-12T12:13:40;14.10;99.90
15407;DHT22;7802;51.568;6.364;2022-10-12T12:16:30;14.00;99.90
15407;DHT22;7802;51.568;6.364;2022-10-12T12:19:35;13.90;99.90
15407;DHT22;7802;51.568;6.364;2022-10-12T12:22:28;13.90;99.90
15407;DHT22;7802;51.568;6.364;2022-10-12T12:25:30;13.80;99.90
15407;DHT22;7802;51.568;6.364;2022-10-12T12:28:19;13.80;99.90
15407;DHT22;7802;51.568;6.364;2022-10-12T12:31:12;13.90;99.90
15407;DHT22;7802;51.568;6.364;2022-10-12T12:34:03;14.00;99.90
15407;DHT22;7802;51.568;6.364;2022-10-12T12:36:51;14.10;99.90
15407;DHT22;7802;51.568;6.364;2022-10-12T12:39:39;14.10;99.90
15407;DHT22;7802;51.568;6.364;2022-10-12T12:42:28;14.10;99.90
15407;DHT22;7802;51.568;6.364;2022-10-12T12:45:39;14.20;99.90
15407;DHT22;7802;51.568;6.364;2022-10-12T12:48:55;14.20;99.90
15407;DHT22;7802;51.568;6.364;2022-10-12T12:51:43;14.20;99.90
15407;DHT22;7802;51.568;6.364;2022-10-12T12:54:30;14.10;99.90
15407;DHT22;7802;51.568;6.364;2022-10-12T12:57:57;14.00;99.90
15407;DHT22;7802;51.568;6.364;2022-10-12T13:00:54;13.90;99.90
15407;DHT22;7802;51.568;6.364;2022-10-12T13:04:02;13.70;99.90
15407;DHT22;7802;51.568;6.364;2022-10-12T13:07:29;13.70;99.90
15407;DHT22;7802;51.568;6.364;2022-10-12T13:10:30;13.60;99.90
15407;DHT22;7802;51.568;6.364;2022-10-12T13:16:47;13.60;99.90
15407;DHT22;7802;51.568;6.364;2022-10-12T13:20:00;13.70;99.90
15407;DHT22;7802;51.568;6.364;2022-10-12T13:22:53;13.70;99.90
15407;DHT22;7802;51.568;6.364;2022-10-12T13:25:42;13.70;99.90
15407;DHT22;7802;51.568;6.364;2022-10-12T13:28:33;13.80;99.90
15407;DHT22;7802;51.568;6.364;2022-10-12T13:31:26;13.90;99.90
15407;DHT22;7802;51.568;6.364;2022-10-12T13:34:20;13.90;99.90
15407;DHT22;7802;51.568;6.364;2022-10-12T13:37:11;13.90;99.90
15407;DHT22;7802;51.568;6.364;2022-10-12T13:39:59;13.90;99.90
15407;DHT22;7802;51.568;6.364;2022-10-12T13:42:46;14.00;99.90
15407;DHT22;7802;51.568;6.364;2022-10-12T13:45:33;14.00;99.90
15407;DHT22;7802;51.568;6.364;2022-10-12T13:48:23;14.10;99.90
15407;DHT22;7802;51.568;6.364;2022-10-12T13:51:30;14.10;99.90
15407;DHT22;7802;51.568;6.364;2022-10-12T13:54:20;14.10;99.90
15407;DHT22;7802;51.568;6.364;2022-10-12T13:57:15;14.20;99.90
15407;DHT22;7802;51.568;6.364;2022-10-12T14:00:08;14.20;99.90
15407;DHT22;7802;51.568;6.364;2022-10-12T14:02:57;14.20;99.90
15407;DHT22;7802;51.568;6.364;2022-10-12T14:05:44;14.30;99.90
15407;DHT22;7802;51.568;6.364;2022-10-12T14:08:32;14.30;99.90
15407;DHT22;7802;51.568;6.364;2022-10-12T14:11:21;14.30;99.90
15407;DHT22;7802;51.568;6.364;2022-10-12T14:14:17;14.30;99.90
15407;DHT22;7802;51.568;6.364;2022-10-12T14:17:04;14.40;99.90
15407;DHT22;7802;51.568;6.364;2022-10-12T14:19:53;14.40;99.90
15407;DHT22;7802;51.568;6.364;2022-10-12T14:22:45;14.40;99.90
15407;DHT22;7802;51.568;6.364;2022-10-12T14:25:32;14.50;99.90
15407;DHT22;7802;51.568;6.364;2022-10-12T14:28:27;14.40;99.90
15407;DHT22;7802;51.568;6.364;2022-10-12T14:31:14;14.30;99.90
15407;DHT22;7802;51.568;6.364;2022-10-12T14:34:36;14.40;99.90
15407;DHT22;7802;51.568;6.364;2022-10-12T14:37:27;14.40;99.90
15407;DHT22;7802;51.568;6.364;2022-10-12T14:40:26;14.50;99.90
15407;DHT22;7802;51.568;6.364;2022-10-12T14:43:21;14.60;99.90
15407;DHT22;7802;51.568;6.364;2022-10-12T14:46:09;14.80;99.90
15407;DHT22;7802;51.568;6.364;2022-10-12T14:48:56;15.00;99.90
15407;DHT22;7802;51.568;6.364;2022-10-12T14:51:43;15.00;99.90
15407;DHT22;7802;51.568;6.364;2022-10-12T14:54:30;15.00;99.90
15407;DHT22;7802;51.568;6.364;2022-10-12T14:57:18;15.00;99.90
15407;DHT22;7802;51.568;6.364;2022-10-12T15:00:07;14.80;99.90
15407;DHT22;7802;51.568;6.364;2022-10-12T15:02:54;14.60;99.90
15407;DHT22;7802;51.568;6.364;2022-10-12T15:05:41;14.40;99.90
15407;DHT22;7802;51.568;6.364;2022-10-12T15:08:28;14.30;99.90
15407;DHT22;7802;51.568;6.364;2022-10-12T15:11:15;14.00;99.90
15407;DHT22;7802;51.568;6.364;2022-10-12T15:14:02;13.90;99.90
15407;DHT22;7802;51.568;6.364;2022-10-12T15:16:49;13.80;99.90
15407;DHT22;7802;51.568;6.364;2022-10-12T15:19:36;13.80;99.90
15407;DHT22;7802;51.568;6.364;2022-10-12T15:22:24;13.70;99.90
15407;DHT22;7802;51.568;6.364;2022-10-12T15:25:17;13.70;99.90
15407;DHT22;7802;51.568;6.364;2022-10-12T15:28:04;13.70;99.90
15407;DHT22;7802;51.568;6.364;2022-10-12T15:30:51;13.60;99.90
15407;DHT22;7802;51.568;6.364;2022-10-12T15:33:59;13.60;99.90
15407;DHT22;7802;51.568;6.364;2022-10-12T15:36:46;13.50;99.90
15407;DHT22;7802;51.568;6.364;2022-10-12T15:39:32;13.40;99.90
15407;DHT22;7802;51.568;6.364;2022-10-12T15:42:19;13.40;99.90
15407;DHT22;7802;51.568;6.364;2022-10-12T15:45:13;13.40;99.90
15407;DHT22;7802;51.568;6.364;2022-10-12T15:48:03;13.40;99.90
15407;DHT22;7802;51.568;6.364;2022-10-12T15:50:51;13.30;99.90
15407;DHT22;7802;51.568;6.364;2022-10-12T15:53:38;13.20;99.90
15407;DHT22;7802;51.568;6.364;2022-10-12T15:56:25;13.30;99.90
15407;DHT22;7802;51.568;6.364;2022-10-12T15:59:12;13.20;99.90
15407;DHT22;7802;51.568;6.364;2022-10-12T16:01:59;13.20;99.90
15407;DHT22;7802;51.568;6.364;2022-10-12T16:04:46;13.10;99.90
15407;DHT22;7802;51.568;6.364;2022-10-12T16:07:34;13.10;99.90
15407;DHT22;7802;51.568;6.364;2022-10-12T16:10:24;13.10;99.90
15407;DHT22;7802;51.568;6.364;2022-10-12T16:13:12;13.00;99.90
15407;DHT22;7802;51.568;6.364;2022-10-12T16:15:59;13.00;99.90
15407;DHT22;7802;51.568;6.364;2022-10-12T16:18:46;12.90;99.90
15407;DHT22;7802;51.568;6.364;2022-10-12T16:21:33;12.90;99.90
15407;DHT22;7802;51.568;6.364;2022-10-12T16:24:20;12.80;99.90
15407;DHT22;7802;51.568;6.364;2022-10-12T16:27:07;12.60;99.90
15407;DHT22;7802;51.568;6.364;2022-10-12T16:29:54;12.50;99.90
15407;DHT22;7802;51.568;6.364;2022-10-12T16:32:41;12.40;99.90
15407;DHT22;7802;51.568;6.364;2022-10-12T16:35:28;12.30;99.90
15407;DHT22;7802;51.568;6.364;2022-10-12T16:38:15;12.20;99.90
15407;DHT22;7802;51.568;6.364;2022-10-12T16:41:10;12.10;99.90
15407;DHT22;7802;51.568;6.364;2022-10-12T16:43:57;12.10;99.90
15407;DHT22;7802;51.568;6.364;2022-10-12T16:46:43;12.00;99.90
15407;DHT22;7802;51.568;6.364;2022-10-12T16:49:30;12.00;99.90
15407;DHT22;7802;51.568;6.364;2022-10-12T16:52:17;11.80;99.90
15407;DHT22;7802;51.568;6.364;2022-10-12T16:55:05;11.80;99.90
15407;DHT22;7802;51.568;6.364;2022-10-12T16:57:53;11.70;99.90
15407;DHT22;7802;51.568;6.364;2022-10-12T17:00:40;11.70;99.90
15407;DHT22;7802;51.568;6.364;2022-10-12T17:03:28;11.60;99.90
15407;DHT22;7802;51.568;6.364;2022-10-12T17:06:15;11.50;99.90
15407;DHT22;7802;51.568;6.364;2022-10-12T17:09:04;11.40;99.90
15407;DHT22;7802;51.568;6.364;2022-10-12T17:11:51;11.30;99.90
15407;DHT22;7802;51.568;6.364;2022-10-12T17:14:38;11.20;99.90
15407;DHT22;7802;51.568;6.364;2022-10-12T17:17:25;11.20;99.90
15407;DHT22;7802;51.568;6.364;2022-10-12T17:20:12;11.10;99.90
15407;DHT22;7802;51.568;6.364;2022-10-12T17:22:59;11.00;99.90
15407;DHT22;7802;51.568;6.364;2022-10-12T17:25:46;10.90;99.90
15407;DHT22;7802;51.568;6.364;2022-10-12T17:28:35;10.70;99.90
15407;DHT22;7802;51.568;6.364;2022-10-12T17:31:23;10.60;99.90
15407;DHT22;7802;51.568;6.364;2022-10-12T17:34:16;10.50;99.90
15407;DHT22;7802;51.568;6.364;2022-10-12T17:37:04;10.40;99.90
15407;DHT22;7802;51.568;6.364;2022-10-12T17:39:51;10.20;99.90
15407;DHT22;7802;51.568;6.364;2022-10-12T17:42:38;10.20;99.90
15407;DHT22;7802;51.568;6.364;2022-10-12T17:45:25;10.10;99.90
15407;DHT22;7802;51.568;6.364;2022-10-12T17:48:13;10.10;99.90
15407;DHT22;7802;51.568;6.364;2022-10-12T17:51:07;10.00;99.90
15407;DHT22;7802;51.568;6.364;2022-10-12T17:53:55;10.00;99.90
15407;DHT22;7802;51.568;6.364;2022-10-12T17:56:42;9.80;99.90
15407;DHT22;7802;51.568;6.364;2022-10-12T17:59:29;9.80;99.90
15407;DHT22;7802;51.568;6.364;2022-10-12T18:02:16;9.70;99.90
15407;DHT22;7802;51.568;6.364;2022-10-12T18:05:04;9.60;99.90
15407;DHT22;7802;51.568;6.364;2022-10-12T18:07:51;9.70;99.90
15407;DHT22;7802;51.568;6.364;2022-10-12T18:10:38;9.70;99.90
15407;DHT22;7802;51.568;6.364;2022-10-12T18:13:26;9.70;99.90
15407;DHT22;7802;51.568;6.364;2022-10-12T18:16:14;9.70;99.90
15407;DHT22;7802;51.568;6.364;2022-10-12T18:19:03;9.80;99.90
15407;DHT22;7802;51.568;6.364;2022-10-12T18:21:51;9.70;99.90
15407;DHT22;7802;51.568;6.364;2022-10-12T18:24:38;9.70;99.90
15407;DHT22;7802;51.568;6.364;2022-10-12T18:27:25;9.60;99.90